Terminal Aerodrome Forecast
Issued by NWS

Home | Current Version | Previous Version | Graphics & Text | Print | Product List | Glossary On
Versions: 1 2 3 4 5 6 7 8 9 10 11 12 13 14 15 16 17 18 19
779
FTUS43 KGRB 071003 AAA
TAFCWA
TAF AMD
KCWA 071003Z 0710/0806 20011G15KT P6SM SCT015 BKN060
      TEMPO 0710/0714 5SM -RASN BKN015
     FM071400 22011G15KT P6SM BKN060 OVC090
     FM080000 26007KT P6SM SCT025 BKN040 PROB30 0800/0806 5SM -SN
      BKN025
      AMD LTD TO CLD VIS AND WND TIL 11Z=

USA.gov is the U.S. government's official web portal to all federal, state and local government web resources and services.